createdAt,value
2018-12-14T00:01:11.040Z,23.40
2018-12-14T00:03:52.422Z,24.20
2018-12-14T00:06:26.531Z,24.53
2018-12-14T00:09:02.365Z,26.67
2018-12-14T00:11:45.528Z,25.17
2018-12-14T00:14:26.713Z,25.40
2018-12-14T00:17:00.292Z,22.13
2018-12-14T00:19:35.580Z,23.57
2018-12-14T00:22:14.695Z,24.47
2018-12-14T00:24:56.259Z,25.00
2018-12-14T00:27:37.817Z,27.20
2018-12-14T00:30:20.104Z,21.57
2018-12-14T00:32:57.684Z,28.23
2018-12-14T00:35:36.245Z,29.40
2018-12-14T00:38:11.461Z,18.57
2018-12-14T00:40:51.773Z,24.17
2018-12-14T00:43:32.236Z,25.80
2018-12-14T00:46:11.611Z,21.40
2018-12-14T00:48:46.900Z,22.03
2018-12-14T00:51:20.683Z,28.73
2018-12-14T00:54:02.661Z,22.27
2018-12-14T00:56:44.165Z,25.93
2018-12-14T00:59:20.015Z,22.63
2018-12-14T01:01:55.704Z,22.20
2018-12-14T01:04:31.500Z,27.73
2018-12-14T01:07:10.437Z,28.27
2018-12-14T01:09:53.096Z,26.33
2018-12-14T01:12:31.019Z,24.63
2018-12-14T01:15:15.434Z,27.83
2018-12-14T01:17:57.036Z,21.13
2018-12-14T01:20:35.720Z,24.23
2018-12-14T01:23:10.798Z,27.50
2018-12-14T01:25:48.549Z,28.27
2018-12-14T01:28:27.715Z,27.07
2018-12-14T01:31:07.655Z,20.77
2018-12-14T01:33:47.461Z,31.53
2018-12-14T01:36:28.264Z,24.87
2018-12-14T01:39:12.035Z,31.13
2018-12-14T01:41:52.477Z,24.37
2018-12-14T01:44:33.450Z,26.27
2018-12-14T01:47:12.454Z,26.37
2018-12-14T01:49:51.472Z,28.80
2018-12-14T01:52:31.567Z,26.50
2018-12-14T01:55:10.765Z,23.07
2018-12-14T01:57:50.241Z,26.43
2018-12-14T02:00:33.249Z,30.67
2018-12-14T02:03:12.070Z,26.70
2018-12-14T02:05:51.970Z,30.43
2018-12-14T02:08:29.533Z,27.20
2018-12-14T02:11:12.819Z,29.53
2018-12-14T02:13:54.512Z,28.97
2018-12-14T02:16:35.558Z,28.07
2018-12-14T02:19:16.716Z,32.30
2018-12-14T02:21:54.716Z,28.23
2018-12-14T02:24:36.596Z,26.13
2018-12-14T02:27:16.986Z,30.67
2018-12-14T02:29:57.306Z,27.07
2018-12-14T02:32:35.013Z,25.93
2018-12-14T02:35:17.805Z,34.23
2018-12-14T02:37:58.740Z,28.10
2018-12-14T02:40:40.942Z,28.77
2018-12-14T02:43:14.241Z,33.07
2018-12-14T02:45:56.844Z,28.40
2018-12-14T02:48:36.985Z,31.03
2018-12-14T02:51:14.885Z,31.03
2018-12-14T02:53:55.873Z,29.27
2018-12-14T02:56:35.094Z,31.33
2018-12-14T02:59:19.396Z,28.60
2018-12-14T03:01:59.423Z,33.53
2018-12-14T03:04:38.384Z,28.40
2018-12-14T03:07:16.450Z,28.43
2018-12-14T03:09:56.492Z,31.10
2018-12-14T03:12:36.935Z,30.33
2018-12-14T03:15:17.574Z,28.50
2018-12-14T03:17:58.398Z,37.07
2018-12-14T03:20:39.759Z,31.03
2018-12-14T03:23:24.311Z,29.90
2018-12-14T03:26:05.115Z,25.30
2018-12-14T03:28:49.154Z,31.13
2018-12-14T03:31:29.673Z,31.73
2018-12-14T03:34:11.059Z,33.20
2018-12-14T03:36:50.761Z,32.43
2018-12-14T03:39:29.126Z,39.23
2018-12-14T03:42:10.685Z,33.60
2018-12-14T03:44:52.516Z,33.30
2018-12-14T03:47:32.027Z,40.57
2018-12-14T03:50:11.131Z,32.53
2018-12-14T03:52:52.463Z,36.80
2018-12-14T03:55:33.502Z,34.63
2018-12-14T03:58:16.204Z,35.17
2018-12-14T04:00:52.446Z,51.07
2018-12-14T04:03:36.265Z,41.00
2018-12-14T04:06:19.854Z,38.50
2018-12-14T04:08:58.594Z,29.90
2018-12-14T04:11:37.836Z,37.50
2018-12-14T04:14:22.726Z,33.47
2018-12-14T04:17:03.567Z,30.13
2018-12-14T04:19:42.663Z,32.17
2018-12-14T04:22:23.148Z,33.90
2018-12-14T04:25:04.178Z,30.13
2018-12-14T04:27:42.529Z,32.77
2018-12-14T04:30:24.045Z,34.43
2018-12-14T04:33:00.861Z,29.20
2018-12-14T04:35:45.422Z,26.90
2018-12-14T04:38:22.762Z,34.00
2018-12-14T04:40:58.610Z,33.83
2018-12-14T04:43:34.262Z,41.13
2018-12-14T04:46:15.360Z,31.90
2018-12-14T04:48:54.703Z,34.17
2018-12-14T04:51:34.667Z,31.07
2018-12-14T04:54:10.760Z,29.90
2018-12-14T04:56:52.852Z,31.20
2018-12-14T04:59:29.273Z,40.03
2018-12-14T05:02:06.028Z,31.13
2018-12-14T05:04:43.164Z,30.27
2018-12-14T05:07:18.319Z,29.20
2018-12-14T05:09:57.026Z,31.57
2018-12-14T05:12:36.912Z,37.13
2018-12-14T05:15:16.090Z,37.10
2018-12-14T05:17:51.150Z,39.60
2018-12-14T05:20:31.103Z,32.87
2018-12-14T05:23:12.357Z,32.13
2018-12-14T05:25:50.104Z,33.30
2018-12-14T05:28:30.819Z,28.80
2018-12-14T05:31:12.260Z,45.90
2018-12-14T05:33:50.716Z,41.37
2018-12-14T05:36:29.745Z,28.80
2018-12-14T05:39:11.977Z,38.03
2018-12-14T05:41:53.296Z,32.50
2018-12-14T05:44:33.391Z,37.10
2018-12-14T05:47:13.856Z,36.30
2018-12-14T05:49:52.969Z,42.73
2018-12-14T05:52:27.374Z,34.37
2018-12-14T05:55:06.378Z,28.90
2018-12-14T05:57:48.771Z,38.00
2018-12-14T06:00:27.666Z,35.50
2018-12-14T06:03:03.877Z,26.23
2018-12-14T06:05:42.769Z,41.30
2018-12-14T06:08:20.809Z,26.83
2018-12-14T06:11:02.047Z,30.80
2018-12-14T06:13:43.613Z,36.00
2018-12-14T06:16:27.647Z,48.17
2018-12-14T06:19:07.121Z,36.70
2018-12-14T06:21:44.501Z,40.10
2018-12-14T06:24:23.555Z,37.33
2018-12-14T06:27:01.455Z,42.17
2018-12-14T06:29:39.044Z,29.60
2018-12-14T06:32:15.452Z,42.67
2018-12-14T06:34:51.325Z,42.23
2018-12-14T06:37:29.149Z,32.23
2018-12-14T06:40:09.049Z,34.33
2018-12-14T06:42:51.115Z,39.37
2018-12-14T06:45:31.657Z,34.13
2018-12-14T06:48:08.369Z,33.63
2018-12-14T06:50:49.188Z,32.77
2018-12-14T06:53:29.578Z,38.33
2018-12-14T06:56:09.893Z,35.33
2018-12-14T06:58:52.537Z,40.47
2018-12-14T07:01:32.048Z,38.63
2018-12-14T07:04:12.949Z,43.60
2018-12-14T07:06:51.805Z,37.60
2018-12-14T07:09:32.233Z,45.53
2018-12-14T07:12:11.514Z,45.77
2018-12-14T07:14:51.662Z,53.83
2018-12-14T07:17:30.523Z,51.20
2018-12-14T07:20:12.054Z,60.73
2018-12-14T07:22:52.561Z,46.27
2018-12-14T07:25:32.669Z,49.47
2018-12-14T07:28:13.081Z,51.40
2018-12-14T07:30:51.350Z,42.57
2018-12-14T07:33:34.239Z,45.13
2018-12-14T07:36:13.629Z,44.80
2018-12-14T07:38:54.473Z,55.80
2018-12-14T07:41:35.257Z,47.17
2018-12-14T07:44:14.393Z,43.70
2018-12-14T07:46:53.021Z,49.60
2018-12-14T07:49:35.171Z,53.20
2018-12-14T07:52:18.164Z,51.90
2018-12-14T07:54:58.093Z,56.27
2018-12-14T07:57:38.356Z,57.73
2018-12-14T08:00:17.000Z,54.27
2018-12-14T08:02:56.214Z,52.37
2018-12-14T08:05:36.201Z,66.13
2018-12-14T08:08:15.204Z,54.97
2018-12-14T08:10:57.655Z,44.37
2018-12-14T08:13:38.611Z,53.80
2018-12-14T08:16:23.568Z,49.47
2018-12-14T08:19:01.710Z,50.27
2018-12-14T08:21:43.248Z,49.23
2018-12-14T08:24:22.430Z,49.40
2018-12-14T08:27:01.207Z,47.87
2018-12-14T08:29:42.228Z,56.60
2018-12-14T08:32:23.437Z,45.83
2018-12-14T08:35:04.207Z,54.40
2018-12-14T08:37:44.469Z,59.67
2018-12-14T08:40:24.634Z,44.13
2018-12-14T08:43:04.853Z,49.83
2018-12-14T08:45:43.398Z,53.07
2018-12-14T08:48:23.684Z,43.90
2018-12-14T08:51:02.731Z,39.23
2018-12-14T08:53:43.743Z,52.33
2018-12-14T08:56:26.259Z,62.70
2018-12-14T08:59:06.295Z,44.40
2018-12-14T09:01:48.980Z,46.87
2018-12-14T09:04:29.930Z,57.17
2018-12-14T09:07:11.442Z,53.10
2018-12-14T09:09:51.360Z,47.17
2018-12-14T09:12:31.289Z,50.00
2018-12-14T09:15:11.116Z,58.67
2018-12-14T09:17:51.463Z,47.07
2018-12-14T09:20:34.549Z,54.17
2018-12-14T09:23:17.419Z,48.30
2018-12-14T09:25:58.083Z,48.53
2018-12-14T09:28:40.574Z,58.43
2018-12-14T09:31:23.486Z,49.33
2018-12-14T09:34:06.479Z,43.37
2018-12-14T09:36:47.217Z,52.33
2018-12-14T09:39:27.201Z,49.77
2018-12-14T09:42:06.858Z,50.57
2018-12-14T09:44:49.339Z,49.70
2018-12-14T09:47:26.750Z,52.27
2018-12-14T09:50:06.200Z,58.87
2018-12-14T09:52:47.304Z,49.77
2018-12-14T09:55:27.336Z,58.17
2018-12-14T09:58:06.198Z,53.13
2018-12-14T10:00:44.987Z,46.73
2018-12-14T10:03:26.186Z,55.87
2018-12-14T10:06:02.876Z,44.20
2018-12-14T10:08:44.308Z,49.30
2018-12-14T10:11:39.557Z,45.17
2018-12-14T10:14:22.225Z,47.97
2018-12-14T10:17:02.182Z,59.43
2018-12-14T10:19:42.097Z,64.77
2018-12-14T10:22:20.762Z,49.80
2018-12-14T10:25:00.126Z,45.87
2018-12-14T10:27:40.268Z,54.90
2018-12-14T10:30:20.622Z,48.80
2018-12-14T10:33:02.661Z,47.13
2018-12-14T10:35:42.893Z,51.17
2018-12-14T10:38:22.612Z,46.67
2018-12-14T10:41:02.664Z,45.93
2018-12-14T10:43:43.113Z,53.03
2018-12-14T10:46:22.400Z,45.10
2018-12-14T10:49:02.721Z,43.93
2018-12-14T10:51:43.834Z,48.07
2018-12-14T10:54:27.742Z,57.13
2018-12-14T10:57:08.505Z,59.30
2018-12-14T10:59:48.069Z,44.83
2018-12-14T11:02:31.565Z,51.10
2018-12-14T11:05:12.996Z,48.17
2018-12-14T11:07:51.657Z,53.00
2018-12-14T11:10:31.633Z,43.40
2018-12-14T11:13:11.793Z,44.50
2018-12-14T11:15:50.179Z,45.93
2018-12-14T11:18:29.218Z,43.83
2018-12-14T11:21:15.245Z,40.23
2018-12-14T11:23:54.492Z,51.83
2018-12-14T11:26:36.102Z,48.50
2018-12-14T11:29:18.559Z,52.00
2018-12-14T11:31:57.839Z,43.03
2018-12-14T11:34:38.718Z,46.60
2018-12-14T11:37:17.556Z,40.53
2018-12-14T11:39:59.044Z,40.37
2018-12-14T11:42:36.812Z,43.07
2018-12-14T11:45:13.840Z,40.43
2018-12-14T11:47:54.696Z,62.93
2018-12-14T11:50:35.494Z,44.23
2018-12-14T11:53:19.552Z,42.30
2018-12-14T11:55:58.468Z,42.63
2018-12-14T11:58:38.766Z,39.03
2018-12-14T12:01:18.358Z,37.37
2018-12-14T12:03:58.564Z,44.20
2018-12-14T12:06:41.329Z,49.67
2018-12-14T12:09:23.327Z,47.23
2018-12-14T12:12:03.493Z,40.37
2018-12-14T12:14:42.350Z,39.67
2018-12-14T12:17:21.254Z,41.23
2018-12-14T12:20:00.935Z,49.87
2018-12-14T12:22:46.926Z,51.63
2018-12-14T12:25:27.387Z,44.47
2018-12-14T12:28:12.282Z,45.47
2018-12-14T12:30:49.772Z,46.20
2018-12-14T12:33:27.816Z,38.50
2018-12-14T12:36:10.928Z,43.43
2018-12-14T12:38:53.618Z,30.37
2018-12-14T12:41:33.312Z,39.57
2018-12-14T12:44:13.772Z,36.70
2018-12-14T12:46:54.544Z,44.73
2018-12-14T12:49:35.510Z,39.90
2018-12-14T12:52:13.376Z,44.13
2018-12-14T12:54:55.611Z,38.17
2018-12-14T12:57:38.415Z,35.03
2018-12-14T13:00:18.069Z,46.20
2018-12-14T13:02:57.908Z,43.67
2018-12-14T13:05:37.838Z,29.60
2018-12-14T13:08:18.083Z,31.17
2018-12-14T13:10:57.704Z,30.90
2018-12-14T13:13:40.625Z,33.47
2018-12-14T13:16:20.890Z,29.17
2018-12-14T13:19:02.933Z,36.07
2018-12-14T13:21:42.323Z,31.50
2018-12-14T13:24:25.388Z,33.77
2018-12-14T13:27:04.332Z,34.30
2018-12-14T13:29:45.398Z,33.40
2018-12-14T13:32:30.820Z,34.40
2018-12-14T13:35:11.850Z,40.30
2018-12-14T13:37:54.711Z,33.53
2018-12-14T13:40:31.788Z,34.20
2018-12-14T13:43:10.984Z,31.43
2018-12-14T13:45:53.214Z,28.57
2018-12-14T13:48:32.610Z,32.83
2018-12-14T13:51:13.399Z,31.67
2018-12-14T13:53:55.081Z,28.93
2018-12-14T13:56:37.377Z,36.43
2018-12-14T13:59:17.466Z,25.27
2018-12-14T14:01:57.231Z,35.40
2018-12-14T14:04:38.988Z,30.87
2018-12-14T14:07:17.271Z,28.00
2018-12-14T14:09:58.259Z,34.77
2018-12-14T14:12:40.995Z,32.57
2018-12-14T14:15:21.118Z,32.23
2018-12-14T14:18:05.828Z,34.53
2018-12-14T14:20:46.408Z,27.47
2018-12-14T14:23:26.172Z,29.27
2018-12-14T14:26:08.329Z,32.30
2018-12-14T14:28:48.835Z,31.17
2018-12-14T14:31:27.310Z,29.33
2018-12-14T14:34:05.530Z,29.60
2018-12-14T14:36:46.242Z,28.73
2018-12-14T14:39:27.016Z,31.53
2018-12-14T14:42:08.321Z,36.50
2018-12-14T14:44:48.915Z,27.20
2018-12-14T14:47:29.393Z,26.80
2018-12-14T14:50:09.929Z,28.03
2018-12-14T14:52:50.855Z,22.17
2018-12-14T14:55:32.711Z,28.37
2018-12-14T14:58:13.591Z,24.87
2018-12-14T15:00:53.163Z,22.87
2018-12-14T15:03:33.801Z,37.20
2018-12-14T15:06:14.290Z,27.77
2018-12-14T15:08:53.416Z,22.33
2018-12-14T15:11:34.923Z,25.27
2018-12-14T15:14:14.236Z,24.50
2018-12-14T15:16:55.210Z,26.27
2018-12-14T15:19:35.704Z,28.47
2018-12-14T15:22:14.697Z,24.27
2018-12-14T15:24:55.952Z,24.07
2018-12-14T15:27:29.128Z,32.87
2018-12-14T15:30:08.335Z,33.50
2018-12-14T15:32:47.909Z,35.20
2018-12-14T15:35:25.991Z,32.63
2018-12-14T15:38:02.166Z,31.90
2018-12-14T15:40:35.890Z,32.90
2018-12-14T15:43:11.689Z,34.47
2018-12-14T15:45:48.640Z,36.70
2018-12-14T15:48:25.119Z,28.67
2018-12-14T15:51:02.285Z,39.60
2018-12-14T15:53:37.873Z,39.00
2018-12-14T15:56:19.395Z,33.80
2018-12-14T15:58:59.914Z,43.57
2018-12-14T16:01:37.185Z,38.10
2018-12-14T16:04:11.793Z,37.20
2018-12-14T16:06:50.784Z,45.97
2018-12-14T16:09:29.299Z,42.70
2018-12-14T16:12:02.672Z,43.93
2018-12-14T16:14:40.166Z,30.97
2018-12-14T16:17:21.208Z,45.03
2018-12-14T16:19:59.136Z,43.93
2018-12-14T16:22:36.266Z,48.83
2018-12-14T16:25:09.138Z,51.63
2018-12-14T16:27:49.642Z,47.87
2018-12-14T16:30:26.097Z,48.70
2018-12-14T16:33:00.841Z,55.03
2018-12-14T16:35:40.407Z,52.63
2018-12-14T16:38:17.098Z,58.17
2018-12-14T16:40:54.407Z,55.47
2018-12-14T16:43:35.164Z,55.80
2018-12-14T16:46:11.200Z,56.10
2018-12-14T16:48:49.239Z,59.97
2018-12-14T16:51:30.706Z,51.03
2018-12-14T16:54:10.321Z,65.53
2018-12-14T16:56:49.389Z,60.30
2018-12-14T16:59:31.202Z,67.07
2018-12-14T17:02:11.862Z,69.10
2018-12-14T17:04:47.927Z,70.60
2018-12-14T17:07:27.281Z,66.13
2018-12-14T17:10:09.361Z,65.10
2018-12-14T17:12:48.186Z,74.27
2018-12-14T17:15:25.951Z,67.83
2018-12-14T17:18:02.355Z,62.67
2018-12-14T17:20:38.561Z,60.17
2018-12-14T17:23:17.106Z,73.23
2018-12-14T17:25:55.178Z,79.30
2018-12-14T17:28:39.036Z,72.13
2018-12-14T17:31:15.972Z,68.07
2018-12-14T17:33:49.049Z,69.17
2018-12-14T17:36:28.067Z,63.07
2018-12-14T17:39:06.705Z,66.50
2018-12-14T17:41:44.158Z,68.83
2018-12-14T17:44:21.172Z,60.33
2018-12-14T17:46:59.130Z,63.17
2018-12-14T17:49:39.944Z,61.63
2018-12-14T17:52:17.625Z,68.37
2018-12-14T17:54:56.314Z,75.27
2018-12-14T17:57:35.729Z,75.80
2018-12-14T18:00:15.031Z,63.53
2018-12-14T18:02:49.992Z,67.80
2018-12-14T18:05:28.257Z,70.37
2018-12-14T18:08:04.623Z,61.50
2018-12-14T18:10:40.795Z,65.87
2018-12-14T18:13:18.000Z,73.40
2018-12-14T18:15:56.106Z,74.17
2018-12-14T18:18:32.605Z,71.43
2018-12-14T18:21:13.752Z,70.70
2018-12-14T18:23:52.140Z,68.90
2018-12-14T18:26:30.482Z,61.43
2018-12-14T18:29:08.448Z,65.53
2018-12-14T18:31:44.469Z,67.93
2018-12-14T18:34:17.233Z,61.83
2018-12-14T18:36:51.987Z,72.17
2018-12-14T18:39:29.236Z,68.77
2018-12-14T18:42:06.613Z,65.87
2018-12-14T18:44:44.725Z,75.07
2018-12-14T18:47:22.562Z,74.80
2018-12-14T18:50:00.223Z,74.80
2018-12-14T18:52:37.641Z,72.43
2018-12-14T18:55:14.832Z,71.63
2018-12-14T18:57:52.301Z,66.93
2018-12-14T19:00:31.791Z,69.97
2018-12-14T19:03:09.955Z,69.57
2018-12-14T19:05:47.939Z,65.27
2018-12-14T19:08:26.101Z,62.13
2018-12-14T19:11:00.332Z,64.03
2018-12-14T19:13:34.862Z,72.33
2018-12-14T19:17:14.965Z,77.17
2018-12-14T19:19:52.836Z,75.00
2018-12-14T19:22:30.301Z,68.20
2018-12-14T19:25:09.056Z,69.53
2018-12-14T19:27:45.912Z,74.67
2018-12-14T19:30:21.434Z,72.10
2018-12-14T19:32:55.830Z,72.23
2018-12-14T19:35:35.623Z,80.83
2018-12-14T19:38:09.098Z,69.17
2018-12-14T19:40:47.750Z,66.77
2018-12-14T19:43:25.001Z,68.87
2018-12-14T19:46:06.325Z,72.63
2018-12-14T19:48:37.921Z,66.10
2018-12-14T19:51:14.242Z,66.33
2018-12-14T19:53:50.688Z,72.73
2018-12-14T19:56:27.922Z,61.80
2018-12-14T19:59:02.542Z,73.30
2018-12-14T20:01:39.781Z,65.40
2018-12-14T20:04:16.245Z,72.57
2018-12-14T20:06:51.211Z,71.27
2018-12-14T20:09:28.380Z,69.70
2018-12-14T20:12:03.141Z,69.87
2018-12-14T20:14:38.320Z,67.63
2018-12-14T20:17:14.955Z,73.30
2018-12-14T20:19:50.742Z,72.27
2018-12-14T20:22:30.955Z,67.23
2018-12-14T20:25:03.901Z,74.10
2018-12-14T20:27:37.976Z,76.43
2018-12-14T20:30:10.631Z,70.80
2018-12-14T20:32:45.178Z,66.50
2018-12-14T20:35:26.821Z,78.03
2018-12-14T20:38:06.768Z,76.30
2018-12-14T20:40:41.198Z,76.20
2018-12-14T20:43:18.386Z,78.47
2018-12-14T20:45:52.566Z,80.77
2018-12-14T20:48:27.469Z,76.10
2018-12-14T20:51:04.803Z,65.53
2018-12-14T20:53:44.146Z,80.93
2018-12-14T20:56:25.704Z,76.00
2018-12-14T20:59:06.185Z,71.77
2018-12-14T21:01:45.654Z,79.53
2018-12-14T21:04:28.267Z,84.27
2018-12-14T21:07:05.883Z,69.47
2018-12-14T21:09:45.046Z,72.73
2018-12-14T21:12:24.552Z,72.57
2018-12-14T21:15:05.300Z,71.77
2018-12-14T21:17:44.921Z,72.07
2018-12-14T21:20:25.558Z,74.63
2018-12-14T21:23:06.277Z,81.00
2018-12-14T21:25:46.722Z,69.77
2018-12-14T21:28:28.588Z,72.37
2018-12-14T21:31:08.422Z,76.60
2018-12-14T21:33:51.139Z,73.57
2018-12-14T21:36:33.999Z,78.13
2018-12-14T21:39:12.007Z,77.93
2018-12-14T21:41:54.833Z,75.03
2018-12-14T21:44:34.615Z,81.43
2018-12-14T21:47:17.692Z,85.63
2018-12-14T21:49:59.561Z,78.20
2018-12-14T21:52:38.872Z,66.33
2018-12-14T21:55:21.089Z,69.33
2018-12-14T21:58:01.613Z,77.33
2018-12-14T22:00:41.697Z,72.67
2018-12-14T22:03:22.114Z,80.30
2018-12-14T22:05:58.120Z,82.37
2018-12-14T22:08:40.583Z,75.47
2018-12-14T22:11:18.924Z,76.67
2018-12-14T22:13:56.913Z,82.67
2018-12-14T22:16:39.218Z,79.53
2018-12-14T22:19:17.985Z,67.43
2018-12-14T22:21:57.541Z,80.17
2018-12-14T22:24:37.413Z,67.27
2018-12-14T22:27:15.784Z,69.83
2018-12-14T22:29:54.823Z,72.90
2018-12-14T22:32:35.235Z,71.07
2018-12-14T22:35:14.203Z,72.67
2018-12-14T22:37:53.665Z,67.10
2018-12-14T22:40:34.959Z,67.27
2018-12-14T22:43:15.727Z,68.23
2018-12-14T22:45:56.275Z,62.17
2018-12-14T22:48:37.184Z,76.50
2018-12-14T22:51:17.048Z,74.37
2018-12-14T22:53:55.789Z,75.10
2018-12-14T22:56:36.365Z,71.93
2018-12-14T22:59:18.284Z,80.03
2018-12-14T23:01:58.769Z,74.67
2018-12-14T23:04:36.368Z,73.07
2018-12-14T23:07:14.148Z,68.87
2018-12-14T23:09:56.140Z,67.97
2018-12-14T23:12:38.787Z,74.67
2018-12-14T23:15:19.168Z,68.60
2018-12-14T23:18:01.430Z,67.83
2018-12-14T23:20:41.069Z,68.27
2018-12-14T23:23:20.071Z,61.83
2018-12-14T23:26:00.127Z,72.83
2018-12-14T23:28:42.152Z,73.87
2018-12-14T23:31:21.427Z,65.30
2018-12-14T23:34:02.899Z,71.77
2018-12-14T23:36:44.921Z,68.30
2018-12-14T23:39:23.008Z,62.93
2018-12-14T23:42:01.053Z,63.73
2018-12-14T23:44:39.263Z,73.37
2018-12-14T23:47:22.405Z,66.20
2018-12-14T23:50:01.940Z,64.90
2018-12-14T23:52:43.786Z,63.33
2018-12-14T23:55:26.038Z,65.07
2018-12-14T23:58:05.936Z,62.07
